createdAt,value
2022-09-23T00:01:02.485Z,9.32
2022-09-23T00:03:31.482Z,9.29
2022-09-23T00:05:59.934Z,9.26
2022-09-23T00:08:29.237Z,9.23
2022-09-23T00:10:57.795Z,9.20
2022-09-23T00:13:25.581Z,9.16
2022-09-23T00:18:20.679Z,9.10
2022-09-23T00:20:48.369Z,9.08
2022-09-23T00:23:16.102Z,9.05
2022-09-23T00:25:45.183Z,9.04
2022-09-23T00:28:12.710Z,9.03
2022-09-23T00:30:42.265Z,9.02
2022-09-23T00:33:09.837Z,9.02
2022-09-23T00:35:38.565Z,9.01
2022-09-23T00:38:06.220Z,9.01
2022-09-23T00:40:33.924Z,8.99
2022-09-23T00:43:03.035Z,8.99
2022-09-23T00:45:31.067Z,9.00
2022-09-23T00:48:01.769Z,8.99
2022-09-23T00:50:32.151Z,8.96
2022-09-23T00:53:04.110Z,8.97
2022-09-23T00:55:37.550Z,8.96
2022-09-23T00:58:09.673Z,8.95
2022-09-23T01:00:37.510Z,8.96
2022-09-23T01:03:06.844Z,8.96
2022-09-23T01:05:34.771Z,8.97
2022-09-23T01:08:04.309Z,8.96
2022-09-23T01:10:43.187Z,8.97
2022-09-23T01:13:20.126Z,8.96
2022-09-23T01:15:53.654Z,8.97
2022-09-23T01:18:34.533Z,8.97
2022-09-23T01:21:31.989Z,8.97
2022-09-23T01:24:31.648Z,8.96
2022-09-23T01:27:28.020Z,8.96
2022-09-23T01:30:08.492Z,8.95
2022-09-23T01:32:45.385Z,8.94
2022-09-23T01:35:22.512Z,8.94
2022-09-23T01:37:57.004Z,8.93
2022-09-23T01:40:33.307Z,8.91
2022-09-23T01:43:07.252Z,8.89
2022-09-23T01:45:38.541Z,8.89
2022-09-23T01:48:13.861Z,8.87
2022-09-23T01:50:58.534Z,8.87
2022-09-23T01:53:32.889Z,8.85
2022-09-23T01:56:06.326Z,8.84
2022-09-23T01:58:41.840Z,8.83
2022-09-23T02:01:15.078Z,8.82
2022-09-23T02:03:49.992Z,8.80
2022-09-23T02:06:22.071Z,8.80
2022-09-23T02:08:54.526Z,8.79
2022-09-23T02:11:22.065Z,8.78
2022-09-23T02:13:54.222Z,8.78
2022-09-23T02:16:29.369Z,8.76
2022-09-23T02:19:03.427Z,8.74
2022-09-23T02:21:35.532Z,8.72
2022-09-23T02:24:10.106Z,8.71
2022-09-23T02:26:47.201Z,8.70
2022-09-23T02:29:21.506Z,8.69
2022-09-23T02:31:58.194Z,8.67
2022-09-23T02:34:36.162Z,8.65
2022-09-23T02:37:16.974Z,8.66
2022-09-23T02:39:58.157Z,8.66
2022-09-23T02:42:34.714Z,8.64
2022-09-23T02:45:02.330Z,8.65
2022-09-23T02:47:35.215Z,8.67
2022-09-23T02:50:04.586Z,8.66
2022-09-23T02:52:33.178Z,8.65
2022-09-23T02:55:01.566Z,8.66
2022-09-23T02:57:29.311Z,8.66
2022-09-23T02:59:58.375Z,8.66
2022-09-23T03:02:41.534Z,8.65
2022-09-23T03:05:23.753Z,8.66
2022-09-23T03:08:01.614Z,8.65
2022-09-23T03:10:34.881Z,8.66
2022-09-23T03:13:12.194Z,8.67
2022-09-23T03:15:52.300Z,8.67
2022-09-23T03:18:24.223Z,8.70
2022-09-23T03:20:59.269Z,8.71
2022-09-23T03:23:32.545Z,8.73
2022-09-23T03:26:05.918Z,8.75
2022-09-23T03:28:37.095Z,8.75
2022-09-23T03:31:06.143Z,8.76
2022-09-23T03:33:35.527Z,8.77
2022-09-23T03:36:27.370Z,8.76
2022-09-23T03:39:03.904Z,8.78
2022-09-23T03:41:36.201Z,8.79
2022-09-23T03:44:04.808Z,8.82
2022-09-23T03:46:35.403Z,8.83
2022-09-23T03:49:11.430Z,8.86
2022-09-23T03:51:43.985Z,8.88
2022-09-23T03:54:12.646Z,8.90
2022-09-23T03:56:40.171Z,8.94
2022-09-23T03:59:07.718Z,8.95
2022-09-23T04:01:35.258Z,8.97
2022-09-23T04:04:02.890Z,8.98
2022-09-23T04:06:30.454Z,8.99
2022-09-23T04:08:59.517Z,9.01
2022-09-23T04:11:27.062Z,9.00
2022-09-23T04:13:56.201Z,9.00
2022-09-23T04:16:24.009Z,8.98
2022-09-23T04:18:52.093Z,8.97
2022-09-23T04:21:19.987Z,8.94
2022-09-23T04:23:47.541Z,8.91
2022-09-23T04:26:16.677Z,8.89
2022-09-23T04:28:44.228Z,8.88
2022-09-23T04:31:11.810Z,8.85
2022-09-23T04:33:39.580Z,8.83
2022-09-23T04:36:07.715Z,8.82
2022-09-23T04:38:35.665Z,8.79
2022-09-23T04:41:03.228Z,8.79
2022-09-23T04:43:32.102Z,8.78
2022-09-23T04:46:00.608Z,8.77
2022-09-23T04:48:28.428Z,8.76
2022-09-23T04:51:02.169Z,8.74
2022-09-23T04:53:29.928Z,8.74
2022-09-23T04:56:02.334Z,8.73
2022-09-23T04:58:30.056Z,8.72
2022-09-23T05:01:04.374Z,8.72
2022-09-23T05:03:35.134Z,8.71
2022-09-23T05:06:02.994Z,8.71
2022-09-23T05:08:30.651Z,8.69
2022-09-23T05:10:58.826Z,8.67
2022-09-23T05:13:27.102Z,8.65
2022-09-23T05:16:04.359Z,8.64
2022-09-23T05:18:32.947Z,8.61
2022-09-23T05:21:01.486Z,8.60
2022-09-23T05:23:29.457Z,8.59
2022-09-23T05:25:58.994Z,8.59
2022-09-23T05:28:28.063Z,8.59
2022-09-23T05:31:05.298Z,8.61
2022-09-23T05:33:32.978Z,8.60
2022-09-23T05:36:00.816Z,8.62
2022-09-23T05:38:28.819Z,8.64
2022-09-23T05:40:57.621Z,8.66
2022-09-23T05:43:25.615Z,8.69
2022-09-23T05:46:05.899Z,8.72
2022-09-23T05:48:37.805Z,8.75
2022-09-23T05:51:12.630Z,8.79
2022-09-23T05:53:41.610Z,8.83
2022-09-23T05:56:09.159Z,8.87
2022-09-23T05:58:36.718Z,8.93
2022-09-23T06:01:10.555Z,8.99
2022-09-23T06:03:39.725Z,9.04
2022-09-23T06:06:08.272Z,9.08
2022-09-23T06:08:36.032Z,9.12
2022-09-23T06:11:08.071Z,9.17
2022-09-23T06:13:38.108Z,9.24
2022-09-23T06:16:07.949Z,9.27
2022-09-23T06:18:36.014Z,9.30
2022-09-23T06:21:06.203Z,9.38
2022-09-23T06:23:37.189Z,9.51
2022-09-23T06:26:09.719Z,9.69
2022-09-23T06:28:38.752Z,9.85
2022-09-23T06:31:13.106Z,10.03
2022-09-23T06:33:42.381Z,10.29
2022-09-23T06:36:15.045Z,10.61
2022-09-23T06:38:49.197Z,11.01
2022-09-23T06:41:16.864Z,11.46
2022-09-23T06:43:44.397Z,11.95
2022-09-23T06:46:17.049Z,12.37
2022-09-23T06:48:46.291Z,12.53
2022-09-23T06:51:19.138Z,12.95
2022-09-23T06:53:48.122Z,13.32
2022-09-23T06:56:17.247Z,13.66
2022-09-23T06:58:44.831Z,13.95
2022-09-23T07:01:15.967Z,14.09
2022-09-23T07:03:44.321Z,14.18
2022-09-23T07:06:12.262Z,14.29
2022-09-23T07:08:44.005Z,14.43
2022-09-23T07:11:12.251Z,14.55
2022-09-23T07:13:41.132Z,14.61
2022-09-23T07:16:10.649Z,14.70
2022-09-23T07:18:38.774Z,14.75
2022-09-23T07:21:08.375Z,14.81
2022-09-23T07:23:37.640Z,14.84
2022-09-23T07:26:07.818Z,14.75
2022-09-23T07:28:36.940Z,14.83
2022-09-23T07:31:07.610Z,14.85
2022-09-23T07:33:35.934Z,14.85
2022-09-23T07:36:08.732Z,14.93
2022-09-23T07:38:39.458Z,14.96
2022-09-23T07:41:12.317Z,15.16
2022-09-23T07:43:40.719Z,15.19
2022-09-23T07:46:10.951Z,15.29
2022-09-23T07:48:39.051Z,15.44
2022-09-23T07:51:11.523Z,15.56
2022-09-23T07:53:39.418Z,15.61
2022-09-23T07:56:07.223Z,15.57
2022-09-23T07:58:36.541Z,15.55
2022-09-23T08:01:06.198Z,15.53
2022-09-23T08:03:34.393Z,15.53
2022-09-23T08:06:10.467Z,15.47
2022-09-23T08:08:39.371Z,15.57
2022-09-23T08:11:09.882Z,15.76
2022-09-23T08:13:38.898Z,15.76
2022-09-23T08:16:06.880Z,15.79
2022-09-23T08:18:35.030Z,15.84
2022-09-23T08:21:02.988Z,15.95
2022-09-23T08:23:33.419Z,16.04
2022-09-23T08:26:03.185Z,15.97
2022-09-23T08:28:31.142Z,16.00
2022-09-23T08:31:00.552Z,16.13
2022-09-23T08:33:28.396Z,16.32
2022-09-23T08:36:00.569Z,16.47
2022-09-23T08:38:28.205Z,16.61
2022-09-23T08:41:06.766Z,16.79
2022-09-23T08:43:37.440Z,16.86
2022-09-23T08:46:11.743Z,16.92
2022-09-23T08:48:43.678Z,16.92
2022-09-23T08:51:15.905Z,17.03
2022-09-23T08:53:45.483Z,17.09
2022-09-23T08:56:15.821Z,17.00
2022-09-23T08:58:52.962Z,17.02
2022-09-23T09:01:27.369Z,16.97
2022-09-23T09:03:57.029Z,17.11
2022-09-23T09:06:31.942Z,17.34
2022-09-23T09:09:02.462Z,17.43
2022-09-23T09:11:36.835Z,17.46
2022-09-23T09:14:16.519Z,17.40
2022-09-23T09:17:00.666Z,17.37
2022-09-23T09:19:44.354Z,17.39
2022-09-23T09:22:21.753Z,17.48
2022-09-23T09:24:51.336Z,17.57
2022-09-23T09:27:19.145Z,17.80
2022-09-23T09:29:50.210Z,17.92
2022-09-23T09:32:37.753Z,18.18
2022-09-23T09:35:16.694Z,18.27
2022-09-23T09:37:48.543Z,18.34
2022-09-23T09:40:17.720Z,18.34
2022-09-23T09:42:48.366Z,18.36
2022-09-23T09:45:25.059Z,18.53
2022-09-23T09:48:03.400Z,18.68
2022-09-23T09:50:49.109Z,18.78
2022-09-23T09:53:22.313Z,18.79
2022-09-23T09:56:04.697Z,18.84
2022-09-23T09:58:41.573Z,19.05
2022-09-23T10:01:09.583Z,19.17
2022-09-23T10:03:44.111Z,19.25
2022-09-23T10:06:21.540Z,19.43
2022-09-23T10:09:11.513Z,19.51
2022-09-23T10:11:40.337Z,19.50
2022-09-23T10:14:13.428Z,19.56
2022-09-23T10:16:42.277Z,19.55
2022-09-23T10:19:24.944Z,19.60
2022-09-23T10:21:56.843Z,19.65
2022-09-23T10:24:27.180Z,19.56
2022-09-23T10:27:00.064Z,19.62
2022-09-23T10:29:32.343Z,19.68
2022-09-23T10:32:26.496Z,19.81
2022-09-23T10:34:58.467Z,19.93
2022-09-23T10:37:33.559Z,19.95
2022-09-23T10:40:29.610Z,20.16
2022-09-23T10:43:40.605Z,20.34
2022-09-23T10:46:31.509Z,20.41
2022-09-23T10:49:18.247Z,20.51
2022-09-23T10:51:56.135Z,20.49
2022-09-23T10:54:32.978Z,20.52
2022-09-23T10:57:28.906Z,20.56
2022-09-23T11:00:05.555Z,20.57
2022-09-23T11:02:50.157Z,20.59
2022-09-23T11:05:27.373Z,20.64
2022-09-23T11:08:08.306Z,20.78
2022-09-23T11:10:49.671Z,20.90
2022-09-23T11:13:31.189Z,20.94
2022-09-23T11:16:07.266Z,21.04
2022-09-23T11:18:49.673Z,21.20
2022-09-23T11:21:35.273Z,21.27
2022-09-23T11:24:23.555Z,21.17
2022-09-23T11:27:03.778Z,21.26
2022-09-23T11:29:52.239Z,21.36
2022-09-23T11:32:46.982Z,21.19
2022-09-23T11:35:20.425Z,21.26
2022-09-23T11:37:52.202Z,21.22
2022-09-23T11:40:29.503Z,21.26
2022-09-23T11:43:02.578Z,21.36
2022-09-23T11:45:34.787Z,21.43
2022-09-23T11:48:10.427Z,21.51
2022-09-23T11:50:42.925Z,21.52
2022-09-23T11:53:18.555Z,21.79
2022-09-23T11:55:57.887Z,21.75
2022-09-23T11:58:30.377Z,21.75
2022-09-23T12:01:03.379Z,21.74
2022-09-23T12:03:45.106Z,21.73
2022-09-23T12:06:16.871Z,21.69
2022-09-23T12:08:44.607Z,21.72
2022-09-23T12:11:23.049Z,21.70
2022-09-23T12:13:56.090Z,21.72
2022-09-23T12:16:44.490Z,21.64
2022-09-23T12:19:24.253Z,21.57
2022-09-23T12:22:11.898Z,21.59
2022-09-23T12:24:48.097Z,21.55
2022-09-23T12:27:29.991Z,21.60
2022-09-23T12:30:00.937Z,21.60
2022-09-23T12:32:29.564Z,21.69
2022-09-23T12:34:57.534Z,21.79
2022-09-23T12:37:33.931Z,21.86
2022-09-23T12:40:09.203Z,21.91
2022-09-23T12:42:45.904Z,21.65
2022-09-23T12:45:35.394Z,21.53
2022-09-23T12:48:04.928Z,21.56
2022-09-23T12:50:51.392Z,21.58
2022-09-23T12:53:55.621Z,21.64
2022-09-23T12:56:26.395Z,21.63
2022-09-23T12:59:25.093Z,21.68
2022-09-23T13:01:52.890Z,21.56
2022-09-23T13:04:50.717Z,21.48
2022-09-23T13:07:20.093Z,21.25
2022-09-23T13:09:50.539Z,21.05
2022-09-23T13:12:24.653Z,20.88
2022-09-23T13:14:58.038Z,20.78
2022-09-23T13:17:31.766Z,20.76
2022-09-23T13:20:05.760Z,20.68
2022-09-23T13:22:42.695Z,20.81
2022-09-23T13:25:20.526Z,20.80
2022-09-23T13:27:50.409Z,20.87
2022-09-23T13:30:25.900Z,21.02
2022-09-23T13:33:03.777Z,21.08
2022-09-23T13:35:35.550Z,21.13
2022-09-23T13:38:11.454Z,21.13
2022-09-23T13:40:42.402Z,21.14
2022-09-23T13:43:17.000Z,21.10
2022-09-23T13:45:45.978Z,21.12
2022-09-23T13:48:15.703Z,20.86
2022-09-23T13:50:48.464Z,20.76
2022-09-23T13:53:23.256Z,20.71
2022-09-23T13:56:01.422Z,20.64
2022-09-23T13:58:31.437Z,20.62
2022-09-23T14:01:01.153Z,20.65
2022-09-23T14:03:36.073Z,20.62
2022-09-23T14:06:09.549Z,20.62
2022-09-23T14:08:40.048Z,20.57
2022-09-23T14:11:07.886Z,20.57
2022-09-23T14:13:42.286Z,20.53
2022-09-23T14:16:14.783Z,20.41
2022-09-23T14:18:46.175Z,20.27
2022-09-23T14:21:28.424Z,20.24
2022-09-23T14:23:56.305Z,20.25
2022-09-23T14:26:25.326Z,20.24
2022-09-23T14:28:53.722Z,20.17
2022-09-23T14:31:24.369Z,20.02
2022-09-23T14:33:52.210Z,19.94
2022-09-23T14:36:37.809Z,19.87
2022-09-23T14:39:08.060Z,19.84
2022-09-23T14:41:38.829Z,19.74
2022-09-23T14:44:07.924Z,19.61
2022-09-23T14:46:39.998Z,19.52
2022-09-23T14:49:17.161Z,19.43
2022-09-23T14:51:49.054Z,19.38
2022-09-23T14:54:34.315Z,19.35
2022-09-23T14:57:02.889Z,19.26
2022-09-23T14:59:35.613Z,19.16
2022-09-23T15:02:32.532Z,19.02
2022-09-23T15:05:16.604Z,19.01
2022-09-23T15:07:47.907Z,18.91
2022-09-23T15:10:23.597Z,18.82
2022-09-23T15:12:53.457Z,18.71
2022-09-23T15:15:25.902Z,18.60
2022-09-23T15:17:55.246Z,18.52
2022-09-23T15:20:26.289Z,18.43
2022-09-23T15:22:55.659Z,18.36
2022-09-23T15:25:27.528Z,18.24
2022-09-23T15:28:00.775Z,18.17
2022-09-23T15:30:28.650Z,18.03
2022-09-23T15:32:57.571Z,17.90
2022-09-23T15:35:26.649Z,17.81
2022-09-23T15:37:58.186Z,17.80
2022-09-23T15:40:28.416Z,17.78
2022-09-23T15:42:57.886Z,17.74
2022-09-23T15:45:33.376Z,17.69
2022-09-23T15:48:08.059Z,17.62
2022-09-23T15:50:36.718Z,17.55
2022-09-23T15:53:05.870Z,17.48
2022-09-23T15:55:34.080Z,17.41
2022-09-23T15:58:01.609Z,17.36
2022-09-23T16:00:29.179Z,17.32
2022-09-23T16:02:56.710Z,17.29
2022-09-23T16:05:30.618Z,17.26
2022-09-23T16:07:58.322Z,17.23
2022-09-23T16:10:26.142Z,17.26
2022-09-23T16:12:56.839Z,17.31
2022-09-23T16:15:25.203Z,17.39
2022-09-23T16:17:53.149Z,17.37
2022-09-23T16:20:20.735Z,17.35
2022-09-23T16:22:54.586Z,17.39
2022-09-23T16:25:25.259Z,17.40
2022-09-23T16:27:55.258Z,17.38
2022-09-23T16:30:23.770Z,17.38
2022-09-23T16:32:51.619Z,17.39
2022-09-23T16:35:19.828Z,17.37
2022-09-23T16:37:49.310Z,17.37
2022-09-23T16:40:19.781Z,17.28
2022-09-23T16:42:47.849Z,17.14
2022-09-23T16:45:16.775Z,17.07
2022-09-23T16:47:46.110Z,16.93
2022-09-23T16:50:14.971Z,16.83
2022-09-23T16:52:42.645Z,16.76
2022-09-23T16:55:13.052Z,16.64
2022-09-23T16:57:41.774Z,16.54
2022-09-23T17:00:31.626Z,16.44
2022-09-23T17:03:16.702Z,16.31
2022-09-23T17:05:46.740Z,16.19
2022-09-23T17:08:16.063Z,16.07
2022-09-23T17:10:46.930Z,15.97
2022-09-23T17:13:17.555Z,15.86
2022-09-23T17:15:45.097Z,15.76
2022-09-23T17:18:15.503Z,15.65
2022-09-23T17:20:45.216Z,15.54
2022-09-23T17:23:12.757Z,15.43
2022-09-23T17:25:40.377Z,15.33
2022-09-23T17:28:09.355Z,15.21
2022-09-23T17:30:37.281Z,15.10
2022-09-23T17:33:04.950Z,15.00
2022-09-23T17:35:32.478Z,14.88
2022-09-23T17:38:00.026Z,14.79
2022-09-23T17:40:27.674Z,14.68
2022-09-23T17:42:55.226Z,14.56
2022-09-23T17:45:24.194Z,14.45
2022-09-23T17:47:54.798Z,14.33
2022-09-23T17:50:22.616Z,14.21
2022-09-23T17:52:50.242Z,14.08
2022-09-23T17:55:18.074Z,14.00
2022-09-23T17:57:45.661Z,13.89
2022-09-23T18:00:14.142Z,13.79
2022-09-23T18:02:43.011Z,13.68
2022-09-23T18:05:10.849Z,13.59
2022-09-23T18:07:38.358Z,13.51
2022-09-23T18:10:07.038Z,13.42
2022-09-23T18:12:34.562Z,13.34
2022-09-23T18:15:02.116Z,13.24
2022-09-23T18:17:29.636Z,13.15
2022-09-23T18:19:58.517Z,13.07
2022-09-23T18:22:26.034Z,12.98
2022-09-23T18:24:53.565Z,12.91
2022-09-23T18:27:21.077Z,12.82
2022-09-23T18:29:48.603Z,12.72
2022-09-23T18:32:16.209Z,12.64
2022-09-23T18:34:43.778Z,12.56
2022-09-23T18:37:16.171Z,12.48
2022-09-23T18:39:44.699Z,12.42
2022-09-23T18:42:13.001Z,12.37
2022-09-23T18:44:40.615Z,12.32
2022-09-23T18:47:08.163Z,12.29
2022-09-23T18:49:53.251Z,12.29
2022-09-23T18:52:22.150Z,12.27
2022-09-23T18:54:54.339Z,12.21
2022-09-23T18:57:22.530Z,12.17
2022-09-23T18:59:50.047Z,12.12
2022-09-23T19:02:17.633Z,12.06
2022-09-23T19:04:45.194Z,12.01
2022-09-23T19:07:12.750Z,11.95
2022-09-23T19:09:41.726Z,11.86
2022-09-23T19:12:09.258Z,11.82
2022-09-23T19:14:36.799Z,11.77
2022-09-23T19:17:05.025Z,11.72
2022-09-23T19:19:32.891Z,11.68
2022-09-23T19:22:00.639Z,11.62
2022-09-23T19:24:28.199Z,11.57
2022-09-23T19:26:57.125Z,11.51
2022-09-23T19:29:24.918Z,11.47
2022-09-23T19:31:52.495Z,11.41
2022-09-23T19:34:23.675Z,11.34
2022-09-23T19:36:51.426Z,11.29
2022-09-23T19:39:20.905Z,11.23
2022-09-23T19:41:49.505Z,11.15
2022-09-23T19:44:19.899Z,11.06
2022-09-23T19:46:53.361Z,10.98
2022-09-23T19:49:23.841Z,10.92
2022-09-23T19:51:51.414Z,10.86
2022-09-23T19:54:20.348Z,10.82
2022-09-23T19:56:48.566Z,10.76
2022-09-23T19:59:18.745Z,10.74
2022-09-23T20:01:48.989Z,10.70
2022-09-23T20:04:16.780Z,10.66
2022-09-23T20:06:45.805Z,10.64
2022-09-23T20:09:13.400Z,10.59
2022-09-23T20:11:44.053Z,10.55
2022-09-23T20:14:13.345Z,10.53
2022-09-23T20:16:41.345Z,10.50
2022-09-23T20:19:10.479Z,10.45
2022-09-23T20:21:38.077Z,10.41
2022-09-23T20:24:07.391Z,10.38
2022-09-23T20:26:52.693Z,10.34
2022-09-23T20:29:20.272Z,10.31
2022-09-23T20:31:48.016Z,10.27
2022-09-23T20:34:16.979Z,10.24
2022-09-23T20:36:44.543Z,10.21
2022-09-23T20:39:12.366Z,10.18
2022-09-23T20:41:40.018Z,10.14
2022-09-23T20:44:12.149Z,10.12
2022-09-23T20:46:42.980Z,10.08
2022-09-23T20:49:14.521Z,10.04
2022-09-23T20:51:43.400Z,10.00
2022-09-23T20:54:11.958Z,9.97
2022-09-23T20:56:39.540Z,9.93
2022-09-23T20:59:07.070Z,9.89
2022-09-23T21:01:36.396Z,9.84
2022-09-23T21:04:05.647Z,9.81
2022-09-23T21:06:35.570Z,9.76
2022-09-23T21:09:05.332Z,9.74
2022-09-23T21:11:33.819Z,9.73
2022-09-23T21:14:02.062Z,9.73
2022-09-23T21:16:30.385Z,9.70
2022-09-23T21:18:58.943Z,9.68
2022-09-23T21:21:27.139Z,9.67
2022-09-23T21:23:54.666Z,9.64
2022-09-23T21:26:25.314Z,9.63
2022-09-23T21:28:54.616Z,9.60
2022-09-23T21:31:25.411Z,9.57
2022-09-23T21:33:54.366Z,9.55
2022-09-23T21:36:23.286Z,9.52
2022-09-23T21:38:51.260Z,9.49
2022-09-23T21:41:19.066Z,9.46
2022-09-23T21:43:49.461Z,9.44
2022-09-23T21:46:20.055Z,9.42
2022-09-23T21:48:49.859Z,9.41
2022-09-23T21:51:20.089Z,9.42
2022-09-23T21:53:48.972Z,9.43
2022-09-23T21:56:21.058Z,9.41
2022-09-23T21:58:52.065Z,9.43
2022-09-23T22:01:21.324Z,9.42
2022-09-23T22:03:51.791Z,9.43
2022-09-23T22:06:21.411Z,9.43
2022-09-23T22:08:51.067Z,9.42
2022-09-23T22:11:37.967Z,9.41
2022-09-23T22:14:08.964Z,9.40
2022-09-23T22:16:36.819Z,9.38
2022-09-23T22:19:06.863Z,9.37
2022-09-23T22:21:37.994Z,9.35
2022-09-23T22:24:07.730Z,9.32
2022-09-23T22:26:36.993Z,9.31
2022-09-23T22:29:23.356Z,9.29
2022-09-23T22:32:09.876Z,9.29
2022-09-23T22:34:49.379Z,9.25
2022-09-23T22:37:19.972Z,9.23
2022-09-23T22:39:47.944Z,9.25
2022-09-23T22:42:16.014Z,9.21
2022-09-23T22:44:43.747Z,9.23
2022-09-23T22:47:12.748Z,9.24
2022-09-23T22:49:40.742Z,9.24
2022-09-23T22:52:08.361Z,9.24
2022-09-23T22:54:36.527Z,9.22
2022-09-23T22:57:05.478Z,9.22
2022-09-23T22:59:33.077Z,9.23
2022-09-23T23:02:02.352Z,9.23
2022-09-23T23:04:31.803Z,9.23
2022-09-23T23:06:59.614Z,9.23
2022-09-23T23:09:27.567Z,9.23
2022-09-23T23:11:55.193Z,9.23
2022-09-23T23:14:22.955Z,9.22
2022-09-23T23:16:50.663Z,9.24
2022-09-23T23:19:19.033Z,9.25
2022-09-23T23:21:47.910Z,9.25
2022-09-23T23:24:17.059Z,9.26
2022-09-23T23:26:45.629Z,9.28
2022-09-23T23:29:14.822Z,9.28
2022-09-23T23:31:43.600Z,9.30
2022-09-23T23:34:13.438Z,9.30
2022-09-23T23:36:41.472Z,9.32
2022-09-23T23:39:11.257Z,9.31
2022-09-23T23:41:39.402Z,9.35
2022-09-23T23:44:07.699Z,9.37
2022-09-23T23:46:37.142Z,9.41
2022-09-23T23:49:06.727Z,9.44
2022-09-23T23:51:34.283Z,9.49
2022-09-23T23:54:01.970Z,9.54
2022-09-23T23:56:31.885Z,9.57
2022-09-23T23:59:02.441Z,9.59
